Time;durP1;ratioP1;P1;durP2;ratioP2;P2;SDS_P1;SDS_P2;PMS_P1;PMS_P2;Temp;Humidity;BMP_temperature;BMP_pressure;BME280_temperature;BME280_humidity;BME280_pressure;Samples;Min_cycle;Max_cycle;Signal;HPM_P1;HPM_P2
2023/02/26 00:01:20;;;;;;;12.37;11.87;;;21.30;50.40;;;;;;4957027;28;20457;-62
2023/02/26 00:03:49;;;;;;;11.77;11.47;;;21.20;50.50;;;;;;4956839;28;20867;-62
2023/02/26 00:06:16;;;;;;;11.70;11.40;;;21.20;50.50;;;;;;4956626;29;20484;-63
2023/02/26 00:08:43;;;;;;;10.70;10.40;;;21.20;50.70;;;;;;4957152;28;21067;-61
2023/02/26 00:11:11;;;;;;;10.40;10.10;;;21.10;50.60;;;;;;4956525;28;20477;-62
2023/02/26 00:13:41;;;;;;;10.47;10.17;;;21.10;50.70;;;;;;4956679;28;21000;-62
2023/02/26 00:16:18;;;;;;;11.23;10.90;;;21.10;50.70;;;;;;4958637;28;20453;-63
2023/02/26 00:18:47;;;;;;;11.00;10.70;;;21.10;50.80;;;;;;4956662;28;20554;-61
2023/02/26 00:21:17;;;;;;;11.30;11.00;;;21.00;50.80;;;;;;4955895;28;20491;-61
2023/02/26 00:23:44;;;;;;;11.70;11.40;;;21.00;50.80;;;;;;4950983;28;20537;-63
2023/02/26 00:26:11;;;;;;;11.30;10.90;;;21.00;50.90;;;;;;4939864;29;20567;-63
2023/02/26 00:28:38;;;;;;;11.37;10.90;;;20.90;50.80;;;;;;4956496;28;20648;-60
2023/02/26 00:31:06;;;;;;;10.87;10.57;;;20.90;50.80;;;;;;4952454;28;20484;-62
2023/02/26 00:33:34;;;;;;;10.53;10.23;;;20.90;50.80;;;;;;4953851;28;20540;-63
2023/02/26 00:36:19;;;;;;;10.00;9.70;;;20.90;50.80;;;;;;4936062;29;20484;-62
2023/02/26 00:38:52;;;;;;;9.77;9.50;;;20.90;50.80;;;;;;4936986;29;20497;-62
2023/02/26 00:41:19;;;;;;;10.90;10.60;;;20.80;50.70;;;;;;4937321;29;20496;-62
2023/02/26 00:43:47;;;;;;;9.97;9.77;;;20.80;50.80;;;;;;4937002;29;20493;-62
2023/02/26 00:46:21;;;;;;;11.80;11.40;;;20.80;50.80;;;;;;4953935;29;20480;-63
2023/02/26 00:48:55;;;;;;;10.60;10.30;;;20.80;50.90;;;;;;4948489;28;20556;-63
2023/02/26 00:51:30;;;;;;;10.73;10.43;;;20.80;51.00;;;;;;4936475;29;20536;-63
2023/02/26 00:54:03;;;;;;;11.47;11.17;;;20.80;51.00;;;;;;4939682;28;20544;-63
2023/02/26 00:56:30;;;;;;;11.13;10.83;;;20.70;50.90;;;;;;4936150;29;20546;-63
2023/02/26 00:58:57;;;;;;;11.20;10.83;;;20.70;50.90;;;;;;4936814;29;20536;-63
2023/02/26 01:01:24;;;;;;;11.53;11.23;;;20.70;50.90;;;;;;4955571;28;20459;-63
2023/02/26 01:03:51;;;;;;;11.80;11.40;;;20.70;50.90;;;;;;4954646;28;20547;-63
2023/02/26 01:06:21;;;;;;;11.40;11.03;;;20.70;50.80;;;;;;4953834;28;20540;-63
2023/02/26 01:08:55;;;;;;;10.80;10.50;;;20.70;50.90;;;;;;4936227;28;20573;-62
2023/02/26 01:11:22;;;;;;;10.80;10.40;;;20.60;50.90;;;;;;4936028;29;20449;-62
2023/02/26 01:13:49;;;;;;;10.63;10.33;;;20.70;51.00;;;;;;4948945;29;20540;-63
2023/02/26 01:16:21;;;;;;;10.93;10.63;;;20.60;51.00;;;;;;4942534;28;20533;-63
2023/02/26 01:18:54;;;;;;;11.00;10.60;;;20.70;51.10;;;;;;4935926;29;20988;-61
2023/02/26 01:21:30;;;;;;;10.10;9.80;;;20.60;51.00;;;;;;4935925;29;20533;-63
2023/02/26 01:24:00;;;;;;;11.10;10.70;;;20.60;51.00;;;;;;4935715;29;20540;-63
2023/02/26 01:26:29;;;;;;;10.77;10.37;;;20.60;50.90;;;;;;4935860;29;21012;-63
2023/02/26 01:28:56;;;;;;;10.80;10.40;;;20.60;51.00;;;;;;4935877;29;20864;-62
2023/02/26 01:31:38;;;;;;;10.90;10.50;;;20.60;51.00;;;;;;4935840;29;20481;-63
2023/02/26 01:34:11;;;;;;;11.40;10.73;;;20.60;51.00;;;;;;4950364;29;20540;-62
2023/02/26 01:36:43;;;;;;;11.77;11.40;;;20.60;51.00;;;;;;4954071;28;20528;-62
2023/02/26 01:39:19;;;;;;;10.90;10.40;;;20.60;51.00;;;;;;4954508;28;20870;-63
2023/02/26 01:41:49;;;;;;;10.40;10.10;;;20.60;51.00;;;;;;4954418;28;20535;-62
2023/02/26 01:44:23;;;;;;;11.33;10.93;;;20.50;50.90;;;;;;4954289;28;20480;-63
2023/02/26 01:47:02;;;;;;;11.80;11.30;;;20.50;50.90;;;;;;4953935;28;20543;-62
2023/02/26 01:49:30;;;;;;;10.37;10.07;;;20.50;50.90;;;;;;4953903;28;20539;-63
2023/02/26 01:51:58;;;;;;;11.43;11.10;;;20.50;50.90;;;;;;4954738;28;20464;-62
2023/02/26 01:54:30;;;;;;;12.00;11.70;;;20.50;50.90;;;;;;4937672;28;20486;-61
2023/02/26 01:57:03;;;;;;;11.47;11.10;;;20.50;50.90;;;;;;4938382;29;20552;-61
2023/02/26 01:59:31;;;;;;;11.67;11.20;;;20.50;50.90;;;;;;4955017;28;20475;-62
2023/02/26 02:02:02;;;;;;;10.90;10.60;;;20.50;50.90;;;;;;4952818;28;20481;-61
2023/02/26 02:04:31;;;;;;;10.50;10.30;;;20.50;51.00;;;;;;4936021;29;20540;-60
2023/02/26 02:06:58;;;;;;;11.77;11.47;;;20.50;50.90;;;;;;4935623;29;20477;-62
2023/02/26 02:09:27;;;;;;;11.50;11.10;;;20.40;50.90;;;;;;4935960;29;20496;-62
2023/02/26 02:12:07;;;;;;;10.60;10.30;;;20.40;50.90;;;;;;4935814;29;20485;-59
2023/02/26 02:14:46;;;;;;;9.97;9.57;;;20.40;50.90;;;;;;4935435;29;20457;-62
2023/02/26 02:17:18;;;;;;;10.23;9.93;;;20.40;50.90;;;;;;4935612;29;20503;-61
2023/02/26 02:20:24;;;;;;;10.90;10.50;;;20.40;50.90;;;;;;4935139;29;20536;-61
2023/02/26 02:23:11;;;;;;;10.70;10.40;;;20.40;50.90;;;;;;4949202;29;20872;-62
2023/02/26 02:26:15;;;;;;;10.80;10.50;;;20.40;50.90;;;;;;4954217;29;20843;-62
2023/02/26 02:28:56;;;;;;;10.47;10.23;;;20.40;50.90;;;;;;4954394;28;20575;-62
2023/02/26 02:31:29;;;;;;;11.70;11.40;;;20.40;50.90;;;;;;4952966;28;21009;-62
2023/02/26 02:34:03;;;;;;;11.57;11.27;;;20.40;51.00;;;;;;4937139;28;20489;-62
2023/02/26 02:36:36;;;;;;;10.90;10.67;;;20.40;50.90;;;;;;4945039;28;20962;-62
2023/02/26 02:39:08;;;;;;;10.17;9.90;;;20.40;50.90;;;;;;4954085;28;20476;-61
2023/02/26 02:41:40;;;;;;;11.40;11.10;;;20.40;50.90;;;;;;4954148;28;20514;-62
2023/02/26 02:44:12;;;;;;;10.60;10.30;;;20.30;50.80;;;;;;4954003;28;20539;-62
2023/02/26 02:46:43;;;;;;;10.57;10.30;;;20.30;50.80;;;;;;4953748;28;20481;-62
2023/02/26 02:49:12;;;;;;;11.70;11.33;;;20.40;50.80;;;;;;4952323;28;20567;-63
2023/02/26 02:51:44;;;;;;;11.20;10.90;;;20.30;50.80;;;;;;4954031;28;20488;-62
2023/02/26 02:54:15;;;;;;;11.63;11.33;;;20.30;50.80;;;;;;4953980;28;20531;-63
2023/02/26 02:56:46;;;;;;;11.30;11.00;;;20.30;50.80;;;;;;4954060;28;20915;-61
2023/02/26 02:59:18;;;;;;;11.70;11.30;;;20.30;50.80;;;;;;4954319;28;20527;-62
2023/02/26 03:01:50;;;;;;;11.67;11.37;;;20.30;50.90;;;;;;4952523;29;20461;-62
2023/02/26 03:04:18;;;;;;;11.00;10.63;;;20.30;50.80;;;;;;4954334;28;20543;-61
2023/02/26 03:09:11;;;;;;;11.17;10.87;;;20.30;50.90;;;;;;5011195;23;20514;-55
2023/02/26 03:11:39;;;;;;;11.40;11.03;;;20.30;50.80;;;;;;4972159;28;20487;-60
2023/02/26 03:14:09;;;;;;;11.10;10.90;;;20.20;50.80;;;;;;4972594;28;20515;-58
2023/02/26 03:17:00;;;;;;;10.90;10.60;;;20.20;50.70;;;;;;4972727;28;20448;-61
2023/02/26 03:19:35;;;;;;;11.23;10.97;;;20.20;50.80;;;;;;4953205;28;20480;-61
2023/02/26 03:22:08;;;;;;;11.00;10.70;;;20.30;50.90;;;;;;4953174;28;20507;-58
2023/02/26 03:28:04;;;;;;;11.07;10.87;;;20.30;50.90;;;;;;4953120;29;20523;-58
2023/02/26 03:30:37;;;;;;;10.80;10.50;;;20.30;50.90;;;;;;4953527;28;20539;-58
2023/02/26 03:33:12;;;;;;;12.20;11.80;;;20.30;50.90;;;;;;4952996;28;20544;-55
2023/02/26 03:35:48;;;;;;;11.27;10.97;;;20.20;50.80;;;;;;4952951;28;20539;-55
2023/02/26 03:38:23;;;;;;;11.00;10.70;;;20.20;50.80;;;;;;4952993;28;20542;-57
2023/02/26 03:40:54;;;;;;;11.47;11.17;;;20.20;50.90;;;;;;4953093;28;20495;-61
2023/02/26 03:43:28;;;;;;;11.17;10.87;;;20.20;50.90;;;;;;4952959;28;20539;-57
2023/02/26 03:46:03;;;;;;;10.70;10.30;;;20.20;50.80;;;;;;4953016;28;20452;-59
2023/02/26 03:48:34;;;;;;;11.33;11.03;;;20.20;50.80;;;;;;4952786;28;20578;-57
2023/02/26 03:51:05;;;;;;;11.43;11.13;;;20.20;50.80;;;;;;4953029;28;20477;-56
2023/02/26 03:53:36;;;;;;;11.40;11.10;;;20.20;50.80;;;;;;4952806;28;20884;-54
2023/02/26 03:56:08;;;;;;;10.80;10.50;;;20.20;50.80;;;;;;4952754;28;20820;-57
2023/02/26 03:58:35;;;;;;;11.13;10.83;;;20.20;50.80;;;;;;4952987;28;20896;-54
2023/02/26 04:01:05;;;;;;;11.50;11.10;;;20.20;50.70;;;;;;4952992;28;20536;-59
2023/02/26 04:03:40;;;;;;;12.27;11.67;;;20.20;50.70;;;;;;4952744;28;20492;-60
2023/02/26 04:06:07;;;;;;;10.80;10.50;;;20.20;50.60;;;;;;4952729;28;20531;-60
2023/02/26 04:08:34;;;;;;;11.50;11.10;;;20.20;50.50;;;;;;4953153;28;20571;-61
2023/02/26 04:11:07;;;;;;;11.60;11.00;;;20.20;50.50;;;;;;4955984;28;20536;-58
2023/02/26 04:13:34;;;;;;;11.47;11.17;;;20.20;50.60;;;;;;4956055;28;20467;-59
2023/02/26 04:16:01;;;;;;;10.90;10.60;;;20.20;50.50;;;;;;4955677;28;20632;-55
2023/02/26 04:18:28;;;;;;;11.23;10.93;;;20.20;50.40;;;;;;4956015;28;20551;-62
2023/02/26 04:20:57;;;;;;;11.70;11.30;;;20.30;50.50;;;;;;4956204;28;20544;-59
2023/02/26 04:23:23;;;;;;;10.83;10.60;;;20.30;50.60;;;;;;4955910;28;20541;-59
2023/02/26 04:25:50;;;;;;;10.90;10.60;;;20.20;50.50;;;;;;4955750;28;20993;-61
2023/02/26 04:28:18;;;;;;;11.60;11.30;;;20.30;50.60;;;;;;4955915;28;20587;-60
2023/02/26 04:30:44;;;;;;;11.13;10.83;;;20.20;50.50;;;;;;4955920;28;20528;-59
2023/02/26 04:33:12;;;;;;;11.27;11.07;;;20.30;50.60;;;;;;4955556;28;20550;-60
2023/02/26 04:35:39;;;;;;;12.10;11.60;;;20.30;50.50;;;;;;4955415;28;20614;-57
2023/02/26 04:38:08;;;;;;;11.37;11.07;;;20.20;50.50;;;;;;4955553;28;20548;-54
2023/02/26 04:40:35;;;;;;;11.40;11.00;;;20.30;50.50;;;;;;4955684;28;20544;-59
2023/02/26 04:43:02;;;;;;;10.97;10.67;;;20.30;50.50;;;;;;4955579;28;20490;-58
2023/02/26 04:45:29;;;;;;;11.43;11.13;;;20.30;50.50;;;;;;4955119;28;21204;-60
2023/02/26 04:47:55;;;;;;;11.83;11.53;;;20.30;50.40;;;;;;4955048;28;20547;-62
2023/02/26 04:50:23;;;;;;;11.73;11.43;;;20.30;50.40;;;;;;4954956;28;20528;-59
2023/02/26 04:52:49;;;;;;;10.97;10.73;;;20.40;50.50;;;;;;4955392;28;20535;-59
2023/02/26 04:55:18;;;;;;;10.90;10.60;;;20.30;50.30;;;;;;4955235;28;20536;-59
2023/02/26 04:57:45;;;;;;;11.53;11.13;;;20.30;50.30;;;;;;4955054;28;20564;-58
2023/02/26 05:00:14;;;;;;;11.27;10.97;;;20.30;50.30;;;;;;4955267;28;20539;-55
2023/02/26 05:02:41;;;;;;;11.20;10.70;;;20.30;50.30;;;;;;4955300;28;20453;-58
2023/02/26 05:05:08;;;;;;;11.93;11.60;;;20.40;50.40;;;;;;4955190;28;20967;-59
2023/02/26 05:07:35;;;;;;;11.50;11.10;;;20.40;50.40;;;;;;4954819;28;20595;-58
2023/02/26 05:10:02;;;;;;;11.63;11.33;;;20.40;50.40;;;;;;4954873;28;20921;-59
2023/02/26 05:12:30;;;;;;;10.70;10.50;;;20.40;50.40;;;;;;4955168;28;20535;-55
2023/02/26 05:14:57;;;;;;;10.80;10.50;;;20.40;50.30;;;;;;4950361;28;20884;-59
2023/02/26 05:17:24;;;;;;;10.50;10.20;;;20.40;50.30;;;;;;4935897;29;20477;-60
2023/02/26 05:19:51;;;;;;;11.70;11.40;;;20.40;50.30;;;;;;4935806;29;20496;-58
2023/02/26 05:22:18;;;;;;;12.60;12.30;;;20.40;50.20;;;;;;4939781;28;20445;-59
2023/02/26 05:24:45;;;;;;;11.37;11.07;;;20.40;50.30;;;;;;4954849;28;20963;-57
2023/02/26 05:27:12;;;;;;;11.60;11.30;;;20.40;50.30;;;;;;4949510;28;20474;-60
2023/02/26 05:29:43;;;;;;;11.93;11.63;;;20.40;50.30;;;;;;4935749;29;20568;-57
2023/02/26 05:32:11;;;;;;;12.30;11.80;;;20.40;50.30;;;;;;4935720;29;20460;-59
2023/02/26 05:34:37;;;;;;;11.87;11.57;;;20.40;50.20;;;;;;4935632;29;20880;-57
2023/02/26 05:37:04;;;;;;;11.60;11.30;;;20.40;50.30;;;;;;4945311;28;20540;-56
2023/02/26 05:39:32;;;;;;;11.97;11.50;;;20.40;50.30;;;;;;4954855;28;20880;-57
2023/02/26 05:41:59;;;;;;;12.30;11.90;;;20.40;50.30;;;;;;4954512;28;20556;-60
2023/02/26 05:44:26;;;;;;;12.00;11.60;;;20.40;50.30;;;;;;4938807;29;20527;-57
2023/02/26 05:46:55;;;;;;;11.47;11.17;;;20.30;50.20;;;;;;4954085;28;20465;-58
2023/02/26 05:49:22;;;;;;;11.07;10.87;;;20.40;50.20;;;;;;4954159;28;21115;-58
2023/02/26 05:51:49;;;;;;;12.40;11.80;;;20.30;50.10;;;;;;4954412;28;20477;-60
2023/02/26 05:54:16;;;;;;;12.50;12.20;;;20.40;50.20;;;;;;4954278;28;20531;-56
2023/02/26 05:56:43;;;;;;;13.33;12.83;;;20.30;50.10;;;;;;4953980;28;20535;-60
2023/02/26 05:59:10;;;;;;;11.90;11.60;;;20.30;50.10;;;;;;4954235;28;20500;-57
2023/02/26 06:01:37;;;;;;;13.63;13.33;;;20.30;50.10;;;;;;4953856;28;20545;-61
2023/02/26 06:04:06;;;;;;;12.83;12.43;;;20.30;50.10;;;;;;4954010;28;20882;-60
2023/02/26 06:06:33;;;;;;;12.73;12.33;;;20.30;50.00;;;;;;4953932;28;20880;-58
2023/02/26 06:09:01;;;;;;;11.80;11.40;;;20.30;50.10;;;;;;4953882;28;20575;-57
2023/02/26 06:11:28;;;;;;;11.73;11.40;;;20.30;50.10;;;;;;4953536;28;20453;-61
2023/02/26 06:13:55;;;;;;;12.50;12.10;;;20.30;50.10;;;;;;4953886;28;20539;-58
2023/02/26 06:16:22;;;;;;;12.13;11.83;;;20.30;50.10;;;;;;4954014;28;20532;-59
2023/02/26 06:18:49;;;;;;;12.40;12.10;;;20.30;50.10;;;;;;4953894;28;21044;-60
2023/02/26 06:21:18;;;;;;;12.43;12.13;;;20.30;50.10;;;;;;4954032;28;20535;-58
2023/02/26 06:23:45;;;;;;;11.93;11.63;;;20.20;50.00;;;;;;4953296;28;20488;-58
2023/02/26 06:26:12;;;;;;;12.00;11.70;;;20.30;50.10;;;;;;4953737;28;20480;-60
2023/02/26 06:28:38;;;;;;;11.20;10.90;;;20.20;50.00;;;;;;4953514;28;20588;-59
2023/02/26 06:31:05;;;;;;;12.63;12.03;;;20.20;50.00;;;;;;4953611;28;20536;-59
2023/02/26 06:33:32;;;;;;;12.10;11.70;;;20.30;50.10;;;;;;4952509;28;20491;-59
2023/02/26 06:35:59;;;;;;;12.37;12.00;;;20.20;49.90;;;;;;4953873;28;20527;-58
2023/02/26 06:38:28;;;;;;;11.83;11.53;;;20.20;49.90;;;;;;4953511;28;20878;-60
2023/02/26 06:40:55;;;;;;;11.80;11.50;;;20.20;49.90;;;;;;4953817;28;20544;-58
2023/02/26 06:43:22;;;;;;;11.77;11.37;;;20.20;49.80;;;;;;4953390;28;20760;-59
2023/02/26 06:45:49;;;;;;;11.73;11.33;;;20.20;49.80;;;;;;4953570;28;20539;-57
2023/02/26 06:48:16;;;;;;;11.53;11.23;;;20.20;49.80;;;;;;4953395;28;20472;-57
2023/02/26 06:50:43;;;;;;;11.43;11.13;;;20.20;49.80;;;;;;4953684;28;20547;-58
2023/02/26 06:53:10;;;;;;;11.50;11.20;;;20.20;50.20;;;;;;4953306;28;20548;-59
2023/02/26 06:55:43;;;;;;;11.67;11.37;;;20.20;49.70;;;;;;4953389;28;20496;-58
2023/02/26 06:58:10;;;;;;;11.20;10.90;;;20.20;49.70;;;;;;4953243;28;20513;-60
2023/02/26 07:00:38;;;;;;;11.93;11.63;;;20.20;49.70;;;;;;4953639;28;20513;-59
2023/02/26 07:03:05;;;;;;;12.13;11.83;;;20.20;49.60;;;;;;4953192;28;20844;-60
2023/02/26 07:05:31;;;;;;;11.70;11.50;;;20.20;49.60;;;;;;4953149;28;20999;-58
2023/02/26 07:07:58;;;;;;;11.80;11.40;;;20.20;49.70;;;;;;4953096;28;20473;-60
2023/02/26 07:10:25;;;;;;;12.33;11.83;;;20.10;49.60;;;;;;4953303;28;20567;-58
2023/02/26 07:12:53;;;;;;;12.00;11.70;;;20.10;49.50;;;;;;4952992;28;20546;-58
2023/02/26 07:15:20;;;;;;;11.50;11.20;;;20.10;49.50;;;;;;4953320;28;20540;-60
2023/02/26 07:17:47;;;;;;;11.93;11.63;;;20.10;49.40;;;;;;4953079;28;20560;-56
2023/02/26 07:20:14;;;;;;;11.10;10.90;;;20.10;49.40;;;;;;4953210;28;20492;-58
2023/02/26 07:22:41;;;;;;;11.80;11.50;;;20.10;49.40;;;;;;4953213;28;20485;-61
2023/02/26 07:25:08;;;;;;;11.07;10.73;;;20.10;49.40;;;;;;4953259;28;20448;-56
2023/02/26 07:27:35;;;;;;;11.40;11.00;;;20.10;49.30;;;;;;4952722;28;20554;-59
2023/02/26 07:30:06;;;;;;;11.47;11.17;;;20.10;49.40;;;;;;4953044;28;20575;-58
2023/02/26 07:32:33;;;;;;;11.17;10.97;;;20.10;49.40;;;;;;4952878;28;20552;-63
2023/02/26 07:35:00;;;;;;;10.77;10.57;;;20.10;49.30;;;;;;4953356;28;20506;-59
2023/02/26 07:37:27;;;;;;;11.00;10.60;;;20.20;49.50;;;;;;4953034;28;20543;-55
2023/02/26 07:39:54;;;;;;;12.50;12.20;;;20.20;49.50;;;;;;4953267;28;20815;-59
2023/02/26 07:42:21;;;;;;;11.80;11.50;;;20.20;49.40;;;;;;4952891;28;20881;-60
2023/02/26 07:44:48;;;;;;;11.53;11.13;;;20.20;49.40;;;;;;4956242;28;20536;-58
2023/02/26 07:47:16;;;;;;;11.57;11.27;;;20.20;49.40;;;;;;4956707;28;20472;-60
2023/02/26 07:49:43;;;;;;;11.50;11.20;;;20.30;49.40;;;;;;4956826;28;20937;-58
2023/02/26 07:52:10;;;;;;;10.73;10.53;;;20.20;49.20;;;;;;4956497;28;20894;-60
2023/02/26 07:54:37;;;;;;;12.00;11.63;;;20.30;49.30;;;;;;4956967;28;21011;-60
2023/02/26 07:57:05;;;;;;;12.23;11.93;;;20.30;49.40;;;;;;4956350;28;20539;-65
2023/02/26 07:59:32;;;;;;;11.50;11.20;;;20.30;49.30;;;;;;4956556;28;20540;-62
2023/02/26 08:01:58;;;;;;;11.80;11.40;;;20.30;49.30;;;;;;4956560;28;20531;-63
2023/02/26 08:04:27;;;;;;;11.70;11.40;;;20.30;49.20;;;;;;4956313;28;20448;-62
2023/02/26 08:06:56;;;;;;;11.60;11.30;;;20.30;49.30;;;;;;4956085;28;20484;-61
2023/02/26 08:09:23;;;;;;;11.60;11.30;;;20.30;49.20;;;;;;4956459;28;20912;-62
2023/02/26 08:11:50;;;;;;;12.17;11.87;;;20.40;49.30;;;;;;4956484;28;20548;-61
2023/02/26 08:14:16;;;;;;;12.23;11.93;;;20.30;49.10;;;;;;4956211;28;20884;-62
2023/02/26 08:16:43;;;;;;;12.37;11.97;;;20.40;49.20;;;;;;4956190;28;20536;-63
2023/02/26 08:19:10;;;;;;;12.20;11.90;;;20.30;49.00;;;;;;4956065;28;20560;-62
2023/02/26 08:21:39;;;;;;;12.10;11.80;;;20.30;48.90;;;;;;4956190;28;20496;-64
2023/02/26 08:24:06;;;;;;;12.40;12.10;;;20.40;49.10;;;;;;4955902;28;20830;-64
2023/02/26 08:26:36;;;;;;;14.97;14.57;;;20.30;48.90;;;;;;4955036;28;20531;-63
2023/02/26 08:29:03;;;;;;;12.43;12.03;;;20.40;49.00;;;;;;4952220;29;20556;-62
2023/02/26 08:31:33;;;;;;;11.80;11.50;;;20.40;48.80;;;;;;4955760;28;20539;-59
2023/02/26 08:34:00;;;;;;;11.20;10.97;;;20.40;48.80;;;;;;4955542;28;20855;-62
2023/02/26 08:36:26;;;;;;;11.80;11.50;;;20.40;48.80;;;;;;4954696;28;20539;-62
2023/02/26 08:38:55;;;;;;;12.67;12.37;;;20.40;48.80;;;;;;4955766;28;20555;-61
2023/02/26 08:41:22;;;;;;;12.23;11.80;;;20.40;49.10;;;;;;4956066;28;20523;-64
2023/02/26 08:43:49;;;;;;;13.00;12.70;;;20.40;48.80;;;;;;4963296;28;20477;-65
2023/02/26 08:46:15;;;;;;;12.70;12.40;;;20.60;49.80;;;;;;4956806;28;20533;-64
2023/02/26 08:48:42;;;;;;;13.17;12.80;;;20.60;50.00;;;;;;4956983;28;20559;-62
2023/02/26 08:51:09;;;;;;;12.10;11.80;;;20.70;48.90;;;;;;4957232;28;20583;-64
2023/02/26 08:53:36;;;;;;;12.43;12.03;;;20.80;48.80;;;;;;4956463;28;20813;-66
2023/02/26 08:56:05;;;;;;;12.70;12.20;;;20.80;48.50;;;;;;4955598;28;20575;-61
2023/02/26 08:58:32;;;;;;;13.73;13.37;;;20.90;48.20;;;;;;4956496;28;21059;-66
2023/02/26 09:00:59;;;;;;;13.03;12.70;;;20.90;47.90;;;;;;4957151;28;20444;-60
2023/02/26 09:03:26;;;;;;;13.00;12.60;;;21.00;48.00;;;;;;4955969;28;20539;-63
2023/02/26 09:05:53;;;;;;;11.83;11.53;;;21.00;47.60;;;;;;4956274;28;20556;-63
2023/02/26 09:08:19;;;;;;;12.90;12.57;;;20.90;47.40;;;;;;4977112;23;20518;-61
2023/02/26 09:10:47;;;;;;;13.07;12.67;;;20.90;47.30;;;;;;4985625;28;20566;-67
2023/02/26 09:13:15;;;;;;;13.87;13.47;;;21.00;47.30;;;;;;4975331;28;20535;-70
2023/02/26 09:15:42;;;;;;;12.70;12.40;;;21.00;47.40;;;;;;4975041;28;20547;-68
2023/02/26 09:18:14;;;;;;;13.73;13.33;;;21.10;47.60;;;;;;4967402;28;21039;-69
2023/02/26 09:20:41;;;;;;;12.70;12.40;;;21.10;47.30;;;;;;4955370;28;20936;-67
2023/02/26 09:23:08;;;;;;;13.67;13.30;;;21.10;47.20;;;;;;4955644;28;20725;-66
2023/02/26 09:25:35;;;;;;;12.67;12.37;;;21.20;47.10;;;;;;4955088;28;20539;-65
2023/02/26 09:28:02;;;;;;;13.23;12.83;;;21.10;46.90;;;;;;4959758;28;20534;-66
2023/02/26 09:30:30;;;;;;;12.60;12.30;;;21.20;47.70;;;;;;4974191;28;20615;-65
2023/02/26 09:32:57;;;;;;;14.53;14.13;;;21.30;48.10;;;;;;4967673;28;20535;-59
2023/02/26 09:35:24;;;;;;;12.83;12.53;;;21.40;48.00;;;;;;4956637;28;20463;-58
2023/02/26 09:37:51;;;;;;;12.83;12.53;;;21.40;47.60;;;;;;4970708;28;20567;-63
2023/02/26 09:40:25;;;;;;;13.37;13.07;;;21.50;47.40;;;;;;4954461;28;20535;-64
2023/02/26 09:43:22;;;;;;;13.00;12.70;;;21.50;47.30;;;;;;4954673;28;20488;-60
2023/02/26 09:45:52;;;;;;;13.00;12.70;;;21.60;47.50;;;;;;4954560;28;20532;-60
2023/02/26 09:48:23;;;;;;;12.73;12.43;;;21.60;47.20;;;;;;4954572;28;20507;-58
2023/02/26 09:50:52;;;;;;;12.50;12.20;;;21.60;47.10;;;;;;4954843;28;20887;-61
2023/02/26 09:53:22;;;;;;;12.57;12.23;;;21.70;47.00;;;;;;4954412;28;20481;-64
2023/02/26 09:55:50;;;;;;;12.53;12.23;;;21.70;46.90;;;;;;4954688;28;20870;-64
2023/02/26 09:58:21;;;;;;;13.10;12.60;;;21.70;47.00;;;;;;4954382;28;20914;-63
2023/02/26 10:00:58;;;;;;;11.50;11.20;;;21.80;47.10;;;;;;4954522;28;20524;-63
2023/02/26 10:03:31;;;;;;;12.93;12.53;;;21.80;46.90;;;;;;4954269;28;20535;-63
2023/02/26 10:06:18;;;;;;;12.30;12.00;;;21.80;46.70;;;;;;4955089;28;20516;-64
2023/02/26 10:08:50;;;;;;;12.80;12.30;;;21.80;46.50;;;;;;4954317;28;20484;-60
2023/02/26 10:11:23;;;;;;;12.47;12.07;;;21.80;46.50;;;;;;4954020;28;20579;-66
2023/02/26 10:13:54;;;;;;;11.80;11.53;;;21.90;46.70;;;;;;4954047;28;20544;-57
2023/02/26 10:16:27;;;;;;;12.60;12.30;;;21.90;46.50;;;;;;4962532;28;20539;-60
2023/02/26 10:18:59;;;;;;;12.43;12.13;;;21.90;46.40;;;;;;4966166;28;20555;-66
2023/02/26 10:21:33;;;;;;;12.00;11.70;;;21.90;46.30;;;;;;4955573;28;20448;-65
2023/02/26 10:24:05;;;;;;;13.07;12.73;;;21.90;46.10;;;;;;4974116;28;20487;-63
2023/02/26 10:26:36;;;;;;;12.10;11.80;;;21.90;46.10;;;;;;4971609;28;20879;-70
2023/02/26 10:29:11;;;;;;;11.93;11.63;;;21.90;46.00;;;;;;4955419;28;20547;-65
2023/02/26 10:31:51;;;;;;;14.33;13.93;;;21.90;46.10;;;;;;4964833;28;20574;-65
2023/02/26 10:34:25;;;;;;;14.90;14.40;;;22.00;46.30;;;;;;4960344;28;20535;-65
2023/02/26 10:36:58;;;;;;;13.97;13.67;;;22.00;46.20;;;;;;4954366;28;20543;-67
2023/02/26 10:39:31;;;;;;;13.67;13.27;;;22.00;46.20;;;;;;4954381;28;20497;-67
2023/02/26 10:42:02;;;;;;;13.30;12.90;;;22.00;46.10;;;;;;4956750;28;20539;-68
2023/02/26 10:44:36;;;;;;;13.53;13.00;;;22.10;46.20;;;;;;4972508;28;20915;-65
2023/02/26 10:47:14;;;;;;;12.20;11.90;;;22.10;46.20;;;;;;4973220;28;20447;-62
2023/02/26 10:49:58;;;;;;;13.93;13.53;;;22.10;45.90;;;;;;4973026;28;20554;-64
2023/02/26 10:52:28;;;;;;;13.80;13.40;;;22.10;45.90;;;;;;4970619;28;20526;-62
2023/02/26 10:55:05;;;;;;;11.85;11.45;;;22.00;45.80;;;;;;4972081;28;20516;-65
2023/02/26 10:57:35;;;;;;;12.83;12.43;;;22.00;45.80;;;;;;4968350;28;20204;-63
2023/02/26 11:00:03;;;;;;;14.27;13.88;;;22.10;45.80;;;;;;4972883;28;20928;-63
2023/02/26 11:02:38;;;;;;;13.70;13.30;;;22.20;45.80;;;;;;4967576;28;20227;-66
2023/02/26 11:05:13;;;;;;;12.90;12.50;;;22.20;46.30;;;;;;4953857;28;20734;-67
2023/02/26 11:07:41;;;;;;;14.47;13.97;;;22.20;46.00;;;;;;4953701;28;20511;-61
2023/02/26 11:10:17;;;;;;;13.30;12.90;;;22.20;46.00;;;;;;4953784;28;21066;-67
2023/02/26 11:12:44;;;;;;;11.48;11.18;;;22.20;46.80;;;;;;4960330;28;20529;-63
2023/02/26 11:15:14;;;;;;;12.60;12.20;;;22.20;47.40;;;;;;4972710;28;20607;-60
2023/02/26 11:17:43;;;;;;;11.67;11.27;;;22.20;47.10;;;;;;4972779;28;21061;-64
2023/02/26 11:20:19;;;;;;;13.13;12.00;;;22.20;46.90;;;;;;4975920;28;20543;-65
2023/02/26 11:22:49;;;;;;;10.10;9.80;;;22.20;46.80;;;;;;4968641;28;20494;-64
2023/02/26 11:25:22;;;;;;;13.20;12.90;;;22.20;46.70;;;;;;4957745;28;20288;-61
2023/02/26 11:27:53;;;;;;;10.40;10.10;;;22.30;46.90;;;;;;4957138;28;20527;-63
2023/02/26 11:30:25;;;;;;;14.20;13.80;;;22.30;46.80;;;;;;4957332;28;20495;-63
2023/02/26 11:32:57;;;;;;;14.40;13.90;;;22.40;46.70;;;;;;4958043;28;20547;-65
2023/02/26 11:35:26;;;;;;;12.07;11.67;;;22.40;46.50;;;;;;4961043;28;20509;-64
2023/02/26 11:37:58;;;;;;;12.10;11.70;;;22.40;46.50;;;;;;4976820;28;20467;-66
2023/02/26 11:40:33;;;;;;;13.23;12.93;;;22.30;46.40;;;;;;4976944;28;20483;-63
2023/02/26 11:43:07;;;;;;;13.50;12.90;;;22.40;46.50;;;;;;4965716;28;20542;-61
2023/02/26 11:45:36;;;;;;;12.40;12.03;;;22.30;46.40;;;;;;4957948;28;20449;-65
2023/02/26 11:48:07;;;;;;;10.13;9.82;;;22.30;46.50;;;;;;4956218;28;20888;-63
2023/02/26 11:50:41;;;;;;;12.90;12.60;;;22.30;46.50;;;;;;4957538;28;20257;-62
2023/02/26 11:53:31;;;;;;;11.60;11.30;;;22.40;46.50;;;;;;4958719;28;20543;-62
2023/02/26 11:56:03;;;;;;;10.38;9.98;;;22.40;46.70;;;;;;4956616;28;20530;-60
2023/02/26 11:58:35;;;;;;;13.47;12.97;;;22.40;46.20;;;;;;4957745;28;20312;-61
2023/02/26 12:01:03;;;;;;;12.70;12.20;;;22.40;46.00;;;;;;4958692;28;20448;-60
2023/02/26 12:03:38;;;;;;;13.30;12.80;;;22.40;45.90;;;;;;4976448;28;20454;-61
2023/02/26 12:06:06;;;;;;;10.93;10.67;;;22.50;46.00;;;;;;4976036;28;20463;-59
2023/02/26 12:08:37;;;;;;;13.80;13.40;;;22.40;46.00;;;;;;4975824;28;20554;-65
2023/02/26 12:11:25;;;;;;;12.70;12.20;;;22.50;46.20;;;;;;4974731;28;20898;-61
2023/02/26 12:14:04;;;;;;;12.17;11.67;;;22.40;46.40;;;;;;4956708;28;20536;-62
2023/02/26 12:16:38;;;;;;;12.70;11.80;;;22.40;46.50;;;;;;4956454;28;20535;-61
2023/02/26 12:19:16;;;;;;;12.97;12.37;;;22.40;46.60;;;;;;4957060;28;20599;-62
2023/02/26 12:22:06;;;;;;;13.40;12.50;;;22.50;46.80;;;;;;4962825;28;20531;-61
2023/02/26 12:25:13;;;;;;;14.53;13.50;;;22.50;46.90;;;;;;4975855;28;20896;-64
2023/02/26 12:27:54;;;;;;;16.83;15.63;;;22.50;47.50;;;;;;4975376;28;20551;-65
2023/02/26 12:30:46;;;;;;;14.63;13.90;;;22.50;49.30;;;;;;4975295;28;20518;-65
2023/02/26 12:33:26;;;;;;;13.50;12.80;;;22.60;50.20;;;;;;4965482;28;20539;-66
2023/02/26 12:36:05;;;;;;;16.77;15.23;;;22.60;50.40;;;;;;4972314;28;21029;-68
2023/02/26 12:38:42;;;;;;;16.73;15.20;;;22.60;51.00;;;;;;4975486;28;20559;-67
2023/02/26 12:41:29;;;;;;;14.70;12.88;;;22.60;51.40;;;;;;4975083;28;20438;-65
2023/02/26 12:43:59;;;;;;;14.17;13.10;;;22.60;51.10;;;;;;4970490;28;20209;-70
2023/02/26 12:46:35;;;;;;;23.23;21.40;;;22.60;50.80;;;;;;4955782;28;20528;-64
2023/02/26 12:49:35;;;;;;;21.13;20.03;;;22.70;50.70;;;;;;4955807;28;20559;-64
2023/02/26 12:52:23;;;;;;;23.00;21.50;;;22.60;50.40;;;;;;4956993;28;20591;-66